Detall de PIREP

Printer-friendly versionPDF version

[2013/04/06 14:51:00]
Flight IATA:CT1006
Pilot Number:012
Company ICAO:CAT
Aircraft Type:C750/F
PAX:4
Departing Airport: LICJ
Destination Airport: LTBA
Alternate Airport:LTAC
Online: VATSIM
Route:PAL UL869 KRK UM600 TSL UM603 GOLDO UG12 EKI
Flight Level:F450
No Slew and time accel
No pause
Crash detect
Detect pilot in Cockpit between each 30 and 45 minutes
14:51 Zero fuel Weight: 22928 Lbs, Fuel Weight: 12989 Lbs
14:51 VATSIM:LICJ 061420Z 04011KT 9999 FEW060 17/12 Q1005
14:51 VATSIM:LTBA 061420Z 27003KT CAVOK 22/06 Q1009 NOSIG
14:51 VOICE CATALONIAN / ALMOGAVERS ROUTE
15:00 Parking Brakes off
15:13 Take-off
15:13 Take off Weight: 35764 Lbs
15:13 Wind: 049º @ 013 Knots Heading: 067º
15:13 POS N38º 10´ 49´´ E013º 06´ 17´´
15:13 Flaps:3 at 153 Knots
15:13 Gear Up: 155 Knots
15:13 Flaps:2 at 162 Knots
15:14 Flaps:0 at 174 Knots
15:16 Flaps:2 at 135 Knots
15:17 Flaps:0 at 155 Knots
15:28 Wind:224º@055 Knots Heading: 076º Ground Speed: 545 Knots Altitude 35623 ft
15:34 TOC
15:34 Fuel Weight: 11990 Lb
15:43 Wind:232º@074 Knots Heading: 076º Ground Speed: 558 Knots Altitude 44809 ft
15:58 Wind:233º@081 Knots Heading: 084º Ground Speed: 561 Knots Altitude 44760 ft
16:13 Wind:242º@085 Knots Heading: 067º Ground Speed: 579 Knots Altitude 44806 ft
16:28 Wind:247º@098 Knots Heading: 085º Ground Speed: 585 Knots Altitude 44872 ft
16:32 TOD
16:32 Fuel Weight: 10975 Lb
16:43 Wind:222º@023 Knots Heading: 103º Ground Speed: 294 Knots Altitude 8881 ft
16:45 Flaps:2 at 218 Knots
16:47 Flaps:3 at 173 Knots
16:48 Flaps:4 at 146 Knots
16:49 Flaps:5 at 145 Knots
16:49 Gear Down: 134 Knots
16:54 TouchDown:Rate -340 ft/min Speed: 119 Knots
16:54 VATSIM:LTBA 061620Z 14004KT 080V170 6000 NSC 18/09 Q1010 NOSIG
16:54 Land
16:54 Wind:142º@006Knots
16:54 Heading: 237º
16:54 Flight Duration: 01:41
16:54 Landing Weight: 33670 Lbs
16:54 POS N40º 58´ 07´´ E028º 49´ 00´´
17:01 Parking brakes on
17:01 Block to Block Duration: 02:01
17:01 Final Fuel: 10681 Lbls
17:01 Spent Fuel: 2308 Lbls
17:01 Flight Length: 816 NM
17:01 TOD Land Length: 119 NM

Exportar CSV

Powered by Drupal - Modified by Danger4k